METAR Data
IDs: Format: Raw Decoded Include TAF

Data at: 1703 UTC 26 Sep 2021

LIMC 261650Z 07003KT 040V110 7000 SCT020 BKN030 19/19 Q1019 NOSIG

TAF LIMC 261100Z 2612/2718 VRB05KT 9999 BKN020
  TEMPO 2612/2618 4000 TSRA
  TEMPO 2621/2707 2000 BR


LIME 261650Z VRB02KT 9999 -RA BKN020 18/16 Q1018 NOSIG

TAF LIME 261100Z 2612/2712 VRB05KT 9999 BKN030
  TEMPO 2612/2620 4000 TSRA
  TEMPO 2621/2707 2000 BR


LIMF 261650Z VRB01KT 9999 SCT030 19/17 Q1019

TAF LIMF 261100Z 2612/2712 VRB05KT 9999 BKN040
  TEMPO 2612/2616 TSRA
  TEMPO 2622/2707 3000 BR


LIMG 261550Z 29004KT 270V340 9999 FEW050 21/18 Q1016 RETS

TAF LIMG 261100Z 2612/2712 VRB05KT 9999 SCT030
  TEMPO 2612/2616 TSRA


LIMJ 261650Z 05009KT CAVOK 22/17 Q1016

TAF LIMJ 261100Z 2612/2712 03007KT 9999 SCT030
  TEMPO 2612/2618 4000 TSRA
  BECMG 2709/2711 16010KT


LIML 261650Z VRB02KT 8000 BKN012 19/18 Q1018 NOSIG

TAF LIML 261100Z 2612/2712 04010KT 9999 BKN020
  TEMPO 2612/2620 4000 TSRA
  BECMG 2613/2615 VRB05KT
  TEMPO 2621/2707 2000 BR


LIMP 261550Z 29003KT 250V010 2000 TSRA BR SCT010 BKN030CB 18/18 Q1020

TAF LIMP 261100Z 2612/2712 36010KT 9999 BKN020
  TEMPO 2612/2620 4000 TSRA
  BECMG 2613/2615 VRB05KT


No METAR found for LIPA
No TAF found for LIPA

LIPB 261650Z VRB03KT 9999 BKN100 20/17 Q1018

TAF LIPB 261100Z 2612/2712 VRB05KT 9999 BKN040
  TEMPO 2615/2624 4000 TSRA


LIPC 261555Z 29005KT 9999 -TSRA SCT010CB BKN020 21/19 Q1018 RMK OVC VIS MIN 9999 WIND THR11 29004KT WIND THR29 30004KT WHT

TAF LIPC 261400Z 2615/2624 12005KT 6000 FEW015 SCT040
  TEMPO 2615/2620 32015G25KT 4000 TSRA SCT015CB BKN030


LIPH 261650Z 29002KT 9999 SCT010 SCT040 21/20 Q1019

TAF LIPH 261100Z 2612/2712 VRB05KT 8000 SCT020
  TEMPO 2615/2621 4000 TSRA
  TEMPO 2700/2706 0700 FG BKN002


No METAR found for LIPI
No TAF found for LIPI

LIPK 261650Z 28016KT 7000 TSRA FEW007 SCT015 20/18 Q1021

TAF LIPK 261100Z 2612/2712 05010KT 9999 SCT030
  TEMPO 2612/2621 4000 SHRA
  BECMG 2617/2619 VRB04KT


LIPL 261555Z 14004KT 2000 -TSRA BR FEW020CB BKN025 20/19 Q1019 RMK OVC VIS MIN 2000 WIND THR31 14003KT WIND THR13 13004KT YLO

TAF LIPL 261400Z 2615/2624 10005KT 5000 RA BR SCT030 BKN040
  PROB30
  TEMPO 2615/2618 4000 TSRA FEW025CB BKN030
  BECMG 2617/2619 3000 BR FEW005 SCT030


LIPO 261650Z AUTO 03008KT 3800 -RA BR FEW004/// BKN049/// BKN110/// 18/18 Q1017 RERA

TAF LIPO 261100Z 2612/2712 36012KT 9999 SCT020
  TEMPO 2612/2620 4000 TSRA
  BECMG 2614/2616 VRB05KT
  BECMG 2619/2621 3000 BR
  TEMPO 2700/2706 0800 FG
  BECMG 2706/2708 6000


LIPQ 261650Z AUTO VRB01KT 8000 -RA OVC110/// 20/19 Q1018

TAF LIPQ 261100Z 2612/2712 09010KT 9999 SCT030
  TEMPO 2615/2621 4000 TSRA
  BECMG 2617/2619 VRB04KT


LIPR 261650Z 31005KT 260V050 9999 TS FEW010 SCT015CB BKN050 21/19 Q1017

TAF AMD LIPR 261457Z 2614/2712 31012KT 9999 SCT030
  TEMPO 2614/2621 4000 TSRA
  BECMG 2618/2620 16007KT
  BECMG 2704/2706 31012KT


LIPZ 261650Z VRB03KT 9999 FEW010 BKN035 21/19 Q1019 BECMG TSRA

TAF LIPZ 261100Z 2612/2718 12012KT 8000 SCT020
  TEMPO 2615/2621 4000 TSRA
  BECMG 2616/2618 VRB04KT
  TEMPO 2700/2706 0700 FG BKN002
  BECMG 2710/2712 13012KT


LIRP 261645Z 14013KT 9999 FEW020 19/18 Q1017 NOSIG

TAF LIRP 261100Z 2612/2712 12010KT 9999 SCT025 BKN030
  TEMPO 2612/2624 5000 RA BR
  PROB40
  TEMPO 2612/2621 22015KT 2000 TSRA FEW015CB BKN020
  BECMG 2622/2702 2500 BR SCT005 SCT030


LFKB 261700Z AUTO 36007KT 320V040 CAVOK 24/19 Q1016 BECMG FEW010 SCT030 FEW040CB

TAF LFKB 261400Z 2615/2715 33015G25KT 9999 TS FEW010 SCT030 FEW040CB BKN120 TX29/2615Z TN18/2705Z
  BECMG 2615/2617 36010KT NSW
  BECMG 2618/2620 23004KT
  BECMG 2708/2710 07010KT
  BECMG 2713/2715 33010KT


LFKC 261700Z AUTO 01009KT 350V070 CAVOK 25/21 Q1016 TEMPO BKN008 BKN090 BECMG 21010KT

TAF LFKC 261400Z 2615/2715 21010KT 9999 FEW050 SCT150 TX29/2615Z TN19/2705Z
  TEMPO 2618/2708 BKN008 BKN090
  PROB40
  TEMPO 2623/2702 RA FEW040TCU
  BECMG 2707/2709 35010KT


LFKJ 261700Z AUTO 19006KT 9000 FEW010 BKN046 26/23 Q1017 TEMPO BKN008 BKN040 BKN080

TAF AMD LFKJ 261645Z 2616/2715 22010KT 9999 FEW050 SCT140
  BECMG 2616/2617 04003KT
  TEMPO 2617/2706 BKN008 BKN040 BKN080
  BECMG 2707/2709 21010KT


LFLL 261700Z 17004KT 130V200 9999 VCTS VCSH SCT033CB BKN110 20/17 Q1019 BECMG CAVOK

TAF LFLL 261100Z 2612/2718 VRB03KT CAVOK
  TEMPO 2614/2617 4000 SHRA SCT040TCU
  PROB30
  TEMPO 2614/2617 VRB15G30KT 1500 TSRA BKN035CB
  TEMPO 2622/2709 3000 BR
  PROB40
  TEMPO 2700/2708 0800 FG VV///


LFML 261700Z AUTO 29007KT CAVOK 23/18 Q1018 NOSIG

TAF LFML 261400Z 2615/2721 29010KT CAVOK TX26/2713Z TN16/2705Z
  BECMG 2619/2621 VRB03KT
  TEMPO 2623/2708 2000 BR BKN004
  PROB40
  TEMPO 2700/2707 0400 FG VV///
  BECMG 2709/2711 27010KT
  BECMG 2719/2721 VRB03KT


LFMN 261700Z 22002KT 9999 FEW021 22/19 Q1017 NOSIG

TAF AMD LFMN 261415Z 2614/2715 09010KT CAVOK
  BECMG 2619/2621 34010KT
  PROB30
  TEMPO 2622/2707 BKN014
  BECMG 2709/2711 25010KT


LOWI 261650Z VRB02KT 9999 FEW060 FEW060CB BKN080 20/15 Q1017 NOSIG

TAF LOWI 261115Z 2612/2712 09010KT CAVOK TX24/2613Z TN14/2705Z
  TEMPO 2614/2623 VRB10KT SHRA SCT040 FEW050CB BKN070
  PROB40
  TEMPO 2614/2620 TSRA


LOWL 261650Z AUTO 11006KT 9999 NCD 20/15 Q1017 NOSIG

TAF LOWL 261115Z 2612/2712 08006KT CAVOK TX22/2614Z TN14/2701Z
  TEMPO 2614/2620 12012KT
  BECMG 2622/2624 25004KT 9999 SCT040
  TEMPO 2702/2712 27015KT SHRA BKN020


LOWW 261650Z 17002KT CAVOK 20/15 Q1018 NOSIG

TAF LOWW 261415Z 2615/2721 14007KT CAVOK TX22/2615Z TN13/2704Z
  BECMG 2617/2619 VRB03KT
  FM270300 34007KT 9999 BKN020 FEW030CB
  TEMPO 2704/2712 SHRA
  PROB30
  TEMPO 2704/2709 2000 TSRA
  FM271200 02007KT 9999 BKN025
  TEMPO 2712/2716 -SHRA


LSGG 261650Z 26005KT 9999 FEW050 19/13 Q1019 NOSIG

TAF LSGG 261425Z 2615/2721 23007KT 9999 FEW040 TX20/2615Z TN11/2705Z TX21/2715Z
  BECMG 2617/2619 VRB02KT
  PROB30
  TEMPO 2703/2707 4000 MIFG


LSZH 261650Z 30003KT 9999 FEW030 SCT075 19/15 Q1019 NOSIG

TAF LSZH 261425Z 2615/2721 26005KT 9999 SCT035 TX21/2615Z TN13/2705Z TX22/2714Z
  PROB40
  TEMPO 2616/2703 SHRA SCT050TCU
  PROB30
  TEMPO 2617/2619 26010KT TSRA SCT040CB
  PROB30 2704/2707 2000 BCFG